Time;durP1;ratioP1;P1;durP2;ratioP2;P2;SDS_P1;SDS_P2;PMS_P1;PMS_P2;Temp;Humidity;BMP_temperature;BMP_pressure;BME280_temperature;BME280_humidity;BME280_pressure;Samples;Min_cycle;Max_cycle;Signal;HPM_P1;HPM_P2
2022/06/17 00:01:30;;;;;;;0.73;0.73;;;;;;;;;;5012212;28;20206;-85
2022/06/17 00:03:57;;;;;;;0.90;0.90;;;;;;;;;;5035193;28;20202;-85
2022/06/17 00:06:25;;;;;;;0.87;0.87;;;;;;;;;;5038133;28;20233;-85
2022/06/17 00:08:54;;;;;;;1.10;1.10;;;;;;;;;;5036892;28;20213;-83
2022/06/17 00:11:23;;;;;;;1.48;1.33;;;;;;;;;;5036176;28;20233;-84
2022/06/17 00:13:51;;;;;;;0.93;0.93;;;;;;;;;;5036347;28;20211;-85
2022/06/17 00:16:20;;;;;;;0.80;0.80;;;;;;;;;;5036532;28;20246;-84
2022/06/17 00:18:47;;;;;;;0.87;0.87;;;;;;;;;;5036240;28;20206;-84
2022/06/17 00:21:18;;;;;;;0.60;0.60;;;;;;;;;;5035387;28;20241;-84
2022/06/17 00:23:45;;;;;;;0.90;0.90;;;;;;;;;;5035700;28;20818;-85
2022/06/17 00:26:12;;;;;;;1.13;1.13;;;;;;;;;;5035225;28;20234;-84
2022/06/17 00:28:39;;;;;;;1.00;1.00;;;;;;;;;;5035396;28;20214;-84
2022/06/17 00:31:08;;;;;;;1.03;1.03;;;;;;;;;;5035158;28;20305;-84
2022/06/17 00:33:35;;;;;;;0.90;0.90;;;;;;;;;;5035297;28;20679;-85
2022/06/17 00:36:02;;;;;;;1.07;1.07;;;;;;;;;;5034895;28;20317;-84
2022/06/17 00:38:30;;;;;;;3.53;1.23;;;;;;;;;;5035352;28;20210;-85
2022/06/17 00:40:58;;;;;;;0.80;0.80;;;;;;;;;;5034715;28;20745;-84
2022/06/17 00:43:27;;;;;;;1.10;1.10;;;;;;;;;;5035200;28;20211;-83
2022/06/17 00:45:57;;;;;;;1.00;1.00;;;;;;;;;;5034371;28;20239;-84
2022/06/17 00:48:28;;;;;;;1.20;1.10;;;;;;;;;;5035394;28;20211;-84
2022/06/17 00:50:56;;;;;;;1.50;1.40;;;;;;;;;;5034733;28;20239;-84
2022/06/17 00:53:25;;;;;;;1.40;1.10;;;;;;;;;;5034965;28;20210;-85
2022/06/17 00:55:54;;;;;;;1.20;1.10;;;;;;;;;;5034654;28;20724;-84
2022/06/17 00:58:24;;;;;;;1.30;1.20;;;;;;;;;;5023242;28;20211;-85
2022/06/17 01:00:53;;;;;;;1.27;1.13;;;;;;;;;;5025776;28;20257;-85
2022/06/17 01:03:22;;;;;;;1.13;1.07;;;;;;;;;;5019221;28;20238;-84
2022/06/17 01:05:53;;;;;;;1.10;1.10;;;;;;;;;;5012120;28;20613;-84
2022/06/17 01:11:04;;;;;;;1.00;1.00;;;;;;;;;;5034211;28;20234;-83
2022/06/17 01:13:31;;;;;;;1.53;1.30;;;;;;;;;;5021576;28;20214;-84
2022/06/17 01:15:58;;;;;;;1.17;1.17;;;;;;;;;;5014327;28;20305;-84
2022/06/17 01:18:26;;;;;;;1.20;1.20;;;;;;;;;;5014949;28;20212;-84
2022/06/17 01:20:55;;;;;;;1.10;1.10;;;;;;;;;;5014438;28;20247;-84
2022/06/17 01:23:25;;;;;;;1.10;1.10;;;;;;;;;;5014579;28;20262;-84
2022/06/17 01:25:53;;;;;;;1.67;1.47;;;;;;;;;;5027634;28;20230;-84
2022/06/17 01:28:20;;;;;;;1.27;1.17;;;;;;;;;;5033461;28;20203;-84
2022/06/17 01:30:49;;;;;;;1.53;1.40;;;;;;;;;;5034060;28;20230;-83
2022/06/17 01:33:19;;;;;;;1.97;1.30;;;;;;;;;;5034232;28;20215;-84
2022/06/17 01:35:49;;;;;;;1.00;1.00;;;;;;;;;;5034075;28;20238;-84
2022/06/17 01:38:16;;;;;;;1.23;1.20;;;;;;;;;;5034998;28;20237;-84
2022/06/17 01:40:44;;;;;;;1.20;1.10;;;;;;;;;;5033903;28;20622;-84
2022/06/17 01:43:13;;;;;;;1.00;1.00;;;;;;;;;;5034269;28;20211;-84
2022/06/17 01:45:42;;;;;;;1.40;1.30;;;;;;;;;;5033469;28;20579;-84
2022/06/17 01:48:11;;;;;;;1.03;1.03;;;;;;;;;;5034002;28;20225;-84
2022/06/17 01:50:38;;;;;;;1.23;1.20;;;;;;;;;;5033858;28;20245;-84
2022/06/17 01:53:09;;;;;;;1.10;1.10;;;;;;;;;;5033987;28;20207;-83
2022/06/17 01:55:38;;;;;;;1.33;1.23;;;;;;;;;;5033774;28;20238;-84
2022/06/17 01:58:08;;;;;;;1.50;1.40;;;;;;;;;;5034058;28;20214;-84
2022/06/17 02:00:36;;;;;;;1.20;1.10;;;;;;;;;;5032046;28;20246;-84
2022/06/17 02:03:05;;;;;;;1.20;1.20;;;;;;;;;;5013884;28;20302;-84
2022/06/17 02:05:33;;;;;;;1.50;1.40;;;;;;;;;;5013316;28;20239;-83
2022/06/17 02:08:01;;;;;;;1.20;1.20;;;;;;;;;;5013889;28;20211;-84
2022/06/17 02:10:29;;;;;;;1.33;1.20;;;;;;;;;;5013568;28;20235;-83
2022/06/17 02:12:58;;;;;;;1.20;1.20;;;;;;;;;;5013737;28;20684;-84
2022/06/17 02:15:26;;;;;;;1.60;1.50;;;;;;;;;;5014685;28;20285;-84
2022/06/17 02:17:53;;;;;;;1.50;1.40;;;;;;;;;;5017137;28;20204;-84
2022/06/17 02:20:21;;;;;;;1.30;1.30;;;;;;;;;;5013371;28;20327;-84
2022/06/17 02:22:48;;;;;;;1.90;1.50;;;;;;;;;;5013626;28;20207;-84
2022/06/17 02:25:17;;;;;;;2.00;1.17;;;;;;;;;;5011999;28;20642;-84
2022/06/17 02:27:45;;;;;;;0.97;0.97;;;;;;;;;;5014484;28;20214;-83
2022/06/17 02:30:13;;;;;;;1.60;1.40;;;;;;;;;;5017451;28;20726;-84
2022/06/17 02:32:42;;;;;;;1.27;1.17;;;;;;;;;;5019061;28;20577;-84
2022/06/17 02:35:16;;;;;;;1.10;1.10;;;;;;;;;;5012275;28;20243;-84
2022/06/17 02:37:43;;;;;;;1.00;1.00;;;;;;;;;;5013479;28;20211;-83
2022/06/17 02:40:19;;;;;;;1.57;1.47;;;;;;;;;;5012829;28;20243;-83
2022/06/17 02:42:46;;;;;;;1.20;1.20;;;;;;;;;;5013452;28;20203;-84
2022/06/17 02:45:15;;;;;;;1.33;1.23;;;;;;;;;;5018091;28;20231;-82
2022/06/17 02:47:44;;;;;;;1.40;1.37;;;;;;;;;;5040449;22;20234;-84
2022/06/17 02:50:15;;;;;;;1.03;1.03;;;;;;;;;;5031910;28;20234;-84
2022/06/17 02:52:42;;;;;;;1.43;1.33;;;;;;;;;;5036987;28;20199;-85
2022/06/17 02:55:13;;;;;;;1.33;1.30;;;;;;;;;;5033797;28;20238;-84
2022/06/17 02:57:40;;;;;;;1.70;1.60;;;;;;;;;;5026982;28;20736;-86
2022/06/17 03:00:12;;;;;;;1.60;1.50;;;;;;;;;;5007113;28;20235;-82
2022/06/17 03:02:40;;;;;;;1.33;1.23;;;;;;;;;;5024753;28;20215;-82
2022/06/17 03:05:16;;;;;;;1.40;1.40;;;;;;;;;;5027429;28;20257;-82
2022/06/17 03:07:44;;;;;;;1.27;1.20;;;;;;;;;;5020507;28;20701;-82
2022/06/17 03:10:15;;;;;;;1.30;1.30;;;;;;;;;;5025250;28;20296;-82
2022/06/17 03:12:43;;;;;;;1.23;1.23;;;;;;;;;;5022623;28;20238;-84
2022/06/17 03:15:11;;;;;;;1.00;1.00;;;;;;;;;;5023971;28;20269;-83
2022/06/17 03:17:40;;;;;;;1.30;1.20;;;;;;;;;;5014241;28;20303;-84
2022/06/17 03:20:09;;;;;;;1.30;1.30;;;;;;;;;;5013581;28;20272;-84
2022/06/17 03:22:37;;;;;;;1.10;1.10;;;;;;;;;;5013882;28;20562;-84
2022/06/17 03:25:06;;;;;;;2.40;1.83;;;;;;;;;;5012742;28;20238;-81
2022/06/17 03:27:37;;;;;;;1.50;1.40;;;;;;;;;;5012996;28;20238;-82
2022/06/17 03:30:05;;;;;;;1.43;1.43;;;;;;;;;;5012438;28;20254;-81
2022/06/17 03:32:33;;;;;;;1.37;1.37;;;;;;;;;;5012969;28;20203;-82
2022/06/17 03:35:00;;;;;;;2.03;1.67;;;;;;;;;;5011153;28;20613;-81
2022/06/17 03:37:29;;;;;;;1.17;1.17;;;;;;;;;;5012335;28;20220;-82
2022/06/17 03:40:00;;;;;;;1.33;1.23;;;;;;;;;;5011660;28;20846;-81
2022/06/17 03:42:30;;;;;;;1.60;1.50;;;;;;;;;;5012106;28;20230;-82
2022/06/17 03:45:03;;;;;;;2.00;1.77;;;;;;;;;;5011713;28;20643;-82
2022/06/17 03:47:42;;;;;;;1.20;1.20;;;;;;;;;;5012233;28;20227;-82
2022/06/17 03:50:17;;;;;;;1.40;1.40;;;;;;;;;;5011900;28;20759;-81
2022/06/17 03:52:45;;;;;;;4.40;1.30;;;;;;;;;;5012729;28;20211;-82
2022/06/17 03:55:15;;;;;;;1.40;1.40;;;;;;;;;;5013197;28;20239;-82
2022/06/17 03:57:44;;;;;;;1.60;1.50;;;;;;;;;;5012869;28;20231;-82
2022/06/17 04:00:13;;;;;;;1.73;1.63;;;;;;;;;;5011792;28;20246;-82
2022/06/17 04:02:40;;;;;;;1.60;1.50;;;;;;;;;;5030815;28;20207;-82
2022/06/17 04:05:10;;;;;;;1.73;1.63;;;;;;;;;;5031331;28;20266;-82
2022/06/17 04:07:37;;;;;;;1.50;1.40;;;;;;;;;;5031746;28;20238;-82
2022/06/17 04:10:05;;;;;;;1.70;1.60;;;;;;;;;;5031423;28;20242;-82
2022/06/17 04:12:34;;;;;;;1.77;1.67;;;;;;;;;;5031977;28;20206;-82
2022/06/17 04:15:08;;;;;;;1.80;1.60;;;;;;;;;;5031315;28;20289;-82
2022/06/17 04:17:38;;;;;;;1.20;1.20;;;;;;;;;;5031963;28;20233;-82
2022/06/17 04:20:26;;;;;;;1.50;1.40;;;;;;;;;;5031198;28;20706;-82
2022/06/17 04:22:55;;;;;;;1.37;1.20;;;;;;;;;;5025843;28;20627;-82
2022/06/17 04:25:25;;;;;;;2.30;1.30;;;;;;;;;;5031246;28;20312;-81
2022/06/17 04:27:59;;;;;;;1.20;1.20;;;;;;;;;;5031991;28;20235;-82
2022/06/17 04:30:29;;;;;;;2.00;1.47;;;;;;;;;;5031730;28;20305;-83
2022/06/17 04:32:58;;;;;;;1.30;1.30;;;;;;;;;;5032324;28;20234;-82
2022/06/17 04:35:25;;;;;;;1.50;1.40;;;;;;;;;;5031240;28;20237;-83
2022/06/17 04:37:52;;;;;;;2.03;1.83;;;;;;;;;;5031756;28;20227;-83
2022/06/17 04:40:23;;;;;;;1.60;1.50;;;;;;;;;;5031384;28;20231;-83
2022/06/17 04:42:52;;;;;;;1.73;1.57;;;;;;;;;;5032076;28;20668;-83
2022/06/17 04:45:22;;;;;;;1.43;1.40;;;;;;;;;;5031159;28;20238;-83
2022/06/17 04:47:49;;;;;;;1.80;1.70;;;;;;;;;;5034444;28;20280;-83
2022/06/17 04:50:17;;;;;;;1.70;1.60;;;;;;;;;;5034935;28;20239;-83
2022/06/17 04:52:45;;;;;;;1.80;1.70;;;;;;;;;;5035297;28;20260;-82
2022/06/17 04:55:14;;;;;;;3.10;1.50;;;;;;;;;;5034854;28;20710;-83
2022/06/17 04:57:42;;;;;;;1.73;1.63;;;;;;;;;;5035776;28;20706;-83
2022/06/17 05:00:15;;;;;;;3.57;1.90;;;;;;;;;;5034498;28;20725;-83
2022/06/17 05:02:44;;;;;;;3.43;1.63;;;;;;;;;;5016266;28;20242;-83
2022/06/17 05:05:13;;;;;;;1.87;1.70;;;;;;;;;;5014489;28;20254;-82
2022/06/17 05:07:42;;;;;;;1.70;1.60;;;;;;;;;;5015013;28;20604;-83
2022/06/17 05:10:14;;;;;;;2.10;2.00;;;;;;;;;;5014468;28;20238;-83
2022/06/17 05:12:42;;;;;;;2.10;1.90;;;;;;;;;;5015143;28;20211;-83
2022/06/17 05:15:12;;;;;;;1.60;1.50;;;;;;;;;;5014297;28;20246;-83
2022/06/17 05:17:39;;;;;;;3.10;2.07;;;;;;;;;;5015092;28;20223;-83
2022/06/17 05:20:08;;;;;;;2.10;2.00;;;;;;;;;;5014632;28;20231;-83
2022/06/17 05:22:36;;;;;;;2.10;1.80;;;;;;;;;;5024917;28;20214;-82
2022/06/17 05:25:05;;;;;;;2.07;1.97;;;;;;;;;;5017555;28;20235;-82
2022/06/17 05:27:33;;;;;;;2.00;1.60;;;;;;;;;;5014662;28;20239;-82
2022/06/17 05:30:00;;;;;;;2.00;1.80;;;;;;;;;;5014168;28;20230;-81
2022/06/17 05:32:27;;;;;;;2.00;1.90;;;;;;;;;;5014741;28;20207;-83
2022/06/17 05:34:54;;;;;;;2.40;2.17;;;;;;;;;;5013870;28;20227;-84
2022/06/17 05:37:22;;;;;;;1.93;1.80;;;;;;;;;;5014869;28;20228;-82
2022/06/17 05:39:49;;;;;;;2.20;2.00;;;;;;;;;;5014232;28;20289;-83
2022/06/17 05:42:16;;;;;;;1.93;1.80;;;;;;;;;;5014347;28;20207;-83
2022/06/17 05:44:43;;;;;;;2.10;1.90;;;;;;;;;;5013741;28;20234;-83
2022/06/17 05:47:10;;;;;;;2.20;1.90;;;;;;;;;;5014174;28;20243;-82
2022/06/17 05:49:38;;;;;;;2.27;2.07;;;;;;;;;;5013954;28;20230;-82
2022/06/17 05:52:06;;;;;;;2.10;2.00;;;;;;;;;;5016777;28;20591;-82
2022/06/17 05:54:34;;;;;;;3.30;1.70;;;;;;;;;;5016584;28;20280;-82
2022/06/17 05:57:01;;;;;;;2.20;1.90;;;;;;;;;;5017768;28;20236;-83
2022/06/17 05:59:28;;;;;;;2.43;2.10;;;;;;;;;;5013660;28;20254;-81
2022/06/17 06:01:55;;;;;;;4.93;1.83;;;;;;;;;;5027248;28;20210;-82
2022/06/17 06:04:22;;;;;;;1.97;1.77;;;;;;;;;;5035320;28;20246;-85
2022/06/17 06:06:51;;;;;;;2.00;1.83;;;;;;;;;;5035737;28;20230;-84
2022/06/17 06:09:18;;;;;;;1.70;1.60;;;;;;;;;;5033671;28;20239;-84
2022/06/17 06:11:46;;;;;;;1.70;1.60;;;;;;;;;;5033991;28;20210;-84
2022/06/17 06:14:13;;;;;;;1.57;1.47;;;;;;;;;;5033224;28;20246;-84
2022/06/17 06:16:40;;;;;;;1.90;1.33;;;;;;;;;;5034162;28;20226;-84
2022/06/17 06:19:08;;;;;;;1.60;1.50;;;;;;;;;;5023347;28;20229;-84
2022/06/17 06:21:35;;;;;;;1.60;1.50;;;;;;;;;;4999026;28;20575;-84
2022/06/17 06:24:02;;;;;;;1.33;1.23;;;;;;;;;;4993683;28;20215;-84
2022/06/17 06:26:29;;;;;;;1.73;1.47;;;;;;;;;;4994513;28;20232;-84
2022/06/17 06:28:59;;;;;;;1.83;1.40;;;;;;;;;;4993952;28;20207;-84
2022/06/17 06:31:31;;;;;;;1.27;1.20;;;;;;;;;;4994518;28;20192;-82
2022/06/17 06:33:58;;;;;;;1.50;1.27;;;;;;;;;;4993276;28;20723;-81
2022/06/17 06:36:25;;;;;;;1.57;1.17;;;;;;;;;;4994594;28;20231;-82
2022/06/17 06:38:52;;;;;;;1.27;1.23;;;;;;;;;;4994661;28;20219;-82
2022/06/17 06:41:20;;;;;;;1.70;1.55;;;;;;;;;;4995334;28;20208;-81
2022/06/17 06:43:47;;;;;;;2.08;1.48;;;;;;;;;;5002904;28;20246;-81
2022/06/17 06:46:16;;;;;;;1.48;1.30;;;;;;;;;;5020722;28;20249;-80
2022/06/17 06:48:43;;;;;;;2.58;1.63;;;;;;;;;;5021504;28;20194;-81
2022/06/17 06:51:11;;;;;;;1.88;1.55;;;;;;;;;;5033160;28;20235;-82
2022/06/17 06:53:38;;;;;;;1.50;1.38;;;;;;;;;;5028638;28;20207;-81
2022/06/17 06:56:06;;;;;;;1.33;1.30;;;;;;;;;;5026264;28;20253;-82
2022/06/17 06:58:33;;;;;;;1.83;1.30;;;;;;;;;;5032222;28;20316;-82
2022/06/17 07:01:00;;;;;;;1.23;1.15;;;;;;;;;;5026742;28;20227;-82
2022/06/17 07:03:29;;;;;;;2.78;1.30;;;;;;;;;;5012077;28;20226;-82
2022/06/17 07:05:57;;;;;;;1.75;1.33;;;;;;;;;;5011830;28;20712;-83
2022/06/17 07:08:26;;;;;;;1.67;1.58;;;;;;;;;;5007678;28;20718;-83
2022/06/17 07:10:54;;;;;;;1.45;1.35;;;;;;;;;;5010792;28;20297;-82
2022/06/17 07:13:22;;;;;;;1.42;1.10;;;;;;;;;;5011982;28;20215;-81
2022/06/17 07:15:50;;;;;;;1.75;1.10;;;;;;;;;;4992599;28;20242;-82
2022/06/17 07:18:18;;;;;;;0.90;0.90;;;;;;;;;;4992413;28;20251;-82
2022/06/17 07:20:47;;;;;;;0.95;0.95;;;;;;;;;;4992274;28;20784;-82
2022/06/17 07:23:16;;;;;;;1.80;1.10;;;;;;;;;;4991820;28;20304;-83
2022/06/17 07:25:43;;;;;;;0.80;0.80;;;;;;;;;;4992986;28;20250;-83
2022/06/17 07:28:13;;;;;;;1.10;1.10;;;;;;;;;;5011961;28;20242;-83
2022/06/17 07:30:40;;;;;;;1.15;1.10;;;;;;;;;;5011973;28;20235;-83
2022/06/17 07:33:08;;;;;;;1.45;1.13;;;;;;;;;;5013218;28;20591;-84
2022/06/17 07:35:35;;;;;;;0.80;0.80;;;;;;;;;;5013403;28;20337;-85
2022/06/17 07:40:48;;;;;;;0.70;0.70;;;;;;;;;;5024895;28;20242;-83
2022/06/17 07:43:16;;;;;;;1.00;0.90;;;;;;;;;;5013458;28;20207;-84
2022/06/17 07:45:43;;;;;;;1.15;0.82;;;;;;;;;;5011867;28;20436;-83
2022/06/17 07:48:12;;;;;;;0.70;0.70;;;;;;;;;;5012237;28;20223;-83
2022/06/17 07:50:41;;;;;;;1.10;1.10;;;;;;;;;;5012067;28;20636;-84
2022/06/17 07:53:10;;;;;;;1.88;0.80;;;;;;;;;;5012346;28;20241;-83
2022/06/17 07:55:37;;;;;;;1.23;1.13;;;;;;;;;;5011537;28;20270;-83
2022/06/17 07:58:05;;;;;;;0.95;0.95;;;;;;;;;;5011972;28;20203;-84
2022/06/17 08:00:33;;;;;;;0.88;0.80;;;;;;;;;;5011865;28;20650;-83
2022/06/17 08:03:01;;;;;;;0.95;0.95;;;;;;;;;;5012658;28;20214;-83
2022/06/17 08:05:28;;;;;;;1.20;1.10;;;;;;;;;;4995656;28;20231;-83
2022/06/17 08:07:55;;;;;;;1.02;0.95;;;;;;;;;;4997425;28;20222;-83
2022/06/17 08:10:26;;;;;;;0.93;0.93;;;;;;;;;;5003452;28;20234;-85
2022/06/17 08:12:53;;;;;;;3.40;1.00;;;;;;;;;;5012394;28;20691;-85
2022/06/17 08:15:21;;;;;;;2.03;0.75;;;;;;;;;;5007977;28;20232;-84
2022/06/17 08:17:48;;;;;;;0.80;0.80;;;;;;;;;;5001261;28;20219;-83
2022/06/17 08:20:16;;;;;;;0.88;0.88;;;;;;;;;;4991984;28;20270;-83
2022/06/17 08:22:43;;;;;;;0.82;0.70;;;;;;;;;;5007216;28;20207;-86
2022/06/17 08:25:11;;;;;;;1.20;1.02;;;;;;;;;;5006551;28;20702;-83
2022/06/17 08:27:43;;;;;;;0.95;0.95;;;;;;;;;;5015869;28;20231;-84
2022/06/17 08:30:10;;;;;;;0.90;0.90;;;;;;;;;;5015560;28;20234;-83
2022/06/17 08:32:48;;;;;;;0.50;0.50;;;;;;;;;;5015595;28;20213;-84
2022/06/17 08:35:16;;;;;;;1.20;0.90;;;;;;;;;;5015018;28;20619;-83
2022/06/17 08:37:43;;;;;;;1.45;1.00;;;;;;;;;;5016291;28;20235;-83
2022/06/17 08:40:16;;;;;;;0.75;0.75;;;;;;;;;;5018623;28;20238;-80
2022/06/17 08:42:48;;;;;;;0.52;0.52;;;;;;;;;;5003032;28;20203;-79
2022/06/17 08:45:22;;;;;;;0.77;0.65;;;;;;;;;;4995127;28;20351;-80
2022/06/17 08:47:57;;;;;;;2.15;0.70;;;;;;;;;;4999829;28;20236;-79
2022/06/17 08:50:32;;;;;;;1.20;1.10;;;;;;;;;;5001124;28;20710;-78
2022/06/17 08:53:10;;;;;;;0.93;0.90;;;;;;;;;;4997881;28;20664;-79
2022/06/17 08:55:41;;;;;;;3.63;0.88;;;;;;;;;;5002027;28;20228;-81
2022/06/17 08:58:14;;;;;;;0.82;0.75;;;;;;;;;;5004369;28;20672;-80
2022/06/17 09:00:46;;;;;;;0.77;0.77;;;;;;;;;;5014499;28;20285;-79
2022/06/17 09:03:20;;;;;;;0.65;0.65;;;;;;;;;;5000889;28;20711;-79
2022/06/17 09:05:50;;;;;;;1.02;0.90;;;;;;;;;;5010083;28;20262;-80
2022/06/17 09:08:24;;;;;;;0.77;0.70;;;;;;;;;;5008940;28;20223;-81
2022/06/17 09:10:57;;;;;;;2.10;0.90;;;;;;;;;;5001443;28;20239;-80
2022/06/17 09:13:33;;;;;;;0.88;0.60;;;;;;;;;;4999883;28;20976;-84
2022/06/17 09:16:03;;;;;;;0.75;0.63;;;;;;;;;;5004601;28;20294;-82
2022/06/17 09:18:30;;;;;;;0.70;0.70;;;;;;;;;;4998527;28;20231;-81
2022/06/17 09:21:00;;;;;;;0.85;0.82;;;;;;;;;;4998290;28;20231;-82
2022/06/17 09:23:30;;;;;;;0.85;0.60;;;;;;;;;;4997499;28;20215;-83
2022/06/17 09:25:57;;;;;;;0.80;0.80;;;;;;;;;;4994610;28;20331;-84
2022/06/17 09:28:27;;;;;;;1.13;0.90;;;;;;;;;;5001625;28;20319;-83
2022/06/17 09:30:58;;;;;;;0.80;0.80;;;;;;;;;;5014139;28;20656;-83
2022/06/17 09:33:26;;;;;;;0.77;0.77;;;;;;;;;;5018165;28;20199;-86
2022/06/17 09:35:56;;;;;;;0.88;0.88;;;;;;;;;;5020882;28;20238;-83
2022/06/17 09:38:26;;;;;;;0.88;0.55;;;;;;;;;;5016256;28;20195;-82
2022/06/17 09:40:55;;;;;;;0.68;0.55;;;;;;;;;;5006414;28;20235;-83
2022/06/17 09:43:24;;;;;;;0.70;0.70;;;;;;;;;;5019528;28;20218;-81
2022/06/17 09:45:52;;;;;;;1.30;0.82;;;;;;;;;;5020313;28;20738;-82
2022/06/17 09:48:22;;;;;;;0.60;0.60;;;;;;;;;;5022404;28;20228;-82
2022/06/17 09:50:52;;;;;;;0.70;0.70;;;;;;;;;;5021554;28;20274;-82
2022/06/17 09:53:20;;;;;;;0.75;0.75;;;;;;;;;;5023123;28;20211;-80
2022/06/17 09:55:49;;;;;;;0.80;0.70;;;;;;;;;;5020202;28;20235;-81
2022/06/17 09:58:20;;;;;;;1.08;0.57;;;;;;;;;;5022653;28;20203;-80
2022/06/17 10:00:49;;;;;;;0.65;0.60;;;;;;;;;;5018518;28;20695;-84
2022/06/17 10:03:20;;;;;;;0.52;0.52;;;;;;;;;;5014403;28;20211;-84
2022/06/17 10:05:51;;;;;;;0.80;0.60;;;;;;;;;;5013716;28;20289;-84
2022/06/17 10:08:24;;;;;;;0.60;0.60;;;;;;;;;;5014308;28;20573;-84
2022/06/17 10:10:54;;;;;;;1.00;0.68;;;;;;;;;;5014084;28;20231;-85
2022/06/17 10:13:26;;;;;;;0.75;0.60;;;;;;;;;;5013735;28;20204;-86
2022/06/17 10:18:51;;;;;;;0.77;0.57;;;;;;;;;;5014035;28;20234;-81
2022/06/17 10:21:30;;;;;;;0.88;0.60;;;;;;;;;;5017214;28;20227;-83
2022/06/17 10:24:04;;;;;;;0.80;0.77;;;;;;;;;;5019561;28;20207;-79
2022/06/17 10:26:36;;;;;;;1.17;0.77;;;;;;;;;;5005495;28;20261;-82
2022/06/17 10:29:14;;;;;;;0.47;0.47;;;;;;;;;;4997499;28;20231;-83
2022/06/17 10:31:43;;;;;;;0.55;0.55;;;;;;;;;;4998824;28;20587;-82
2022/06/17 10:34:13;;;;;;;0.38;0.38;;;;;;;;;;4996627;28;20208;-82
2022/06/17 10:36:43;;;;;;;1.10;0.95;;;;;;;;;;4995349;28;20224;-82
2022/06/17 10:39:11;;;;;;;0.70;0.70;;;;;;;;;;4999022;28;20219;-83
2022/06/17 10:41:38;;;;;;;0.80;0.80;;;;;;;;;;4995666;28;20211;-83
2022/06/17 10:44:08;;;;;;;0.60;0.60;;;;;;;;;;4993533;28;20267;-83
2022/06/17 10:46:39;;;;;;;0.57;0.57;;;;;;;;;;4993719;28;20555;-83
2022/06/17 10:49:10;;;;;;;0.82;0.82;;;;;;;;;;4993275;28;20212;-83
2022/06/17 10:51:39;;;;;;;0.60;0.60;;;;;;;;;;5002365;28;20199;-83
2022/06/17 10:54:13;;;;;;;0.57;0.57;;;;;;;;;;5013011;28;20706;-84
2022/06/17 10:56:41;;;;;;;0.73;0.73;;;;;;;;;;5013222;28;20254;-84
2022/06/17 10:59:10;;;;;;;0.47;0.47;;;;;;;;;;5012854;28;20576;-84
2022/06/17 11:01:52;;;;;;;0.50;0.50;;;;;;;;;;5012922;28;20214;-84
2022/06/17 11:04:20;;;;;;;1.05;0.75;;;;;;;;;;5012801;28;20242;-83
2022/06/17 11:06:50;;;;;;;1.08;0.75;;;;;;;;;;5013277;28;20234;-84
2022/06/17 11:09:24;;;;;;;0.82;0.70;;;;;;;;;;5012254;28;20239;-84
2022/06/17 11:12:05;;;;;;;0.55;0.55;;;;;;;;;;5013457;28;20281;-84
2022/06/17 11:14:34;;;;;;;0.63;0.50;;;;;;;;;;5012704;28;20257;-84
2022/06/17 11:17:02;;;;;;;0.80;0.73;;;;;;;;;;5013656;28;20226;-83
2022/06/17 11:19:29;;;;;;;2.20;0.80;;;;;;;;;;5013905;28;20230;-83
2022/06/17 11:21:58;;;;;;;0.60;0.60;;;;;;;;;;5020239;28;20734;-83
2022/06/17 11:24:28;;;;;;;0.52;0.52;;;;;;;;;;5021669;28;20729;-83
2022/06/17 11:27:14;;;;;;;0.65;0.63;;;;;;;;;;5020298;28;20226;-85
2022/06/17 11:29:43;;;;;;;0.63;0.63;;;;;;;;;;5030772;28;20233;-89
2022/06/17 11:32:13;;;;;;;0.50;0.50;;;;;;;;;;5031110;28;20217;-88
2022/06/17 11:34:48;;;;;;;0.85;0.85;;;;;;;;;;5013819;28;20617;-89
2022/06/17 11:37:18;;;;;;;0.47;0.40;;;;;;;;;;5014888;28;20284;-86
2022/06/17 11:39:47;;;;;;;0.40;0.40;;;;;;;;;;5014026;28;20238;-89
2022/06/17 11:42:18;;;;;;;0.73;0.38;;;;;;;;;;5014260;28;20207;-87
2022/06/17 11:44:52;;;;;;;0.85;0.60;;;;;;;;;;5013611;28;20242;-87
2022/06/17 11:47:21;;;;;;;0.80;0.75;;;;;;;;;;5013356;28;20250;-88
2022/06/17 11:49:48;;;;;;;0.52;0.52;;;;;;;;;;5014257;28;20257;-87
2022/06/17 11:52:27;;;;;;;0.52;0.52;;;;;;;;;;5017122;28;20207;-88
2022/06/17 11:54:56;;;;;;;0.50;0.50;;;;;;;;;;5016500;28;20238;-86
2022/06/17 11:57:25;;;;;;;1.05;0.60;;;;;;;;;;5013976;28;20231;-88
2022/06/17 11:59:54;;;;;;;0.40;0.40;;;;;;;;;;5014600;28;20234;-88
2022/06/17 12:02:21;;;;;;;1.15;0.73;;;;;;;;;;5014838;28;20214;-87
2022/06/17 12:04:49;;;;;;;1.38;0.60;;;;;;;;;;5013654;28;20230;-87
2022/06/17 12:07:21;;;;;;;0.70;0.70;;;;;;;;;;5013510;28;20227;-87
2022/06/17 12:09:50;;;;;;;0.40;0.40;;;;;;;;;;5012743;28;20234;-88
2022/06/17 12:12:19;;;;;;;0.38;0.38;;;;;;;;;;5018262;28;20214;-87
2022/06/17 12:14:49;;;;;;;0.40;0.40;;;;;;;;;;5014244;28;20230;-88
2022/06/17 12:17:17;;;;;;;1.75;0.60;;;;;;;;;;5015175;28;20284;-87
2022/06/17 12:19:44;;;;;;;0.93;0.50;;;;;;;;;;5018674;28;20226;-87
2022/06/17 12:22:15;;;;;;;1.02;0.50;;;;;;;;;;5016290;28;20210;-87
2022/06/17 12:24:46;;;;;;;1.23;0.68;;;;;;;;;;5015109;28;20226;-88
2022/06/17 12:27:18;;;;;;;0.85;0.73;;;;;;;;;;5019306;28;20223;-87
2022/06/17 12:29:49;;;;;;;2.25;0.47;;;;;;;;;;5013871;28;20234;-87
2022/06/17 12:32:17;;;;;;;1.52;0.60;;;;;;;;;;5015539;28;20187;-88
2022/06/17 12:34:49;;;;;;;1.85;0.73;;;;;;;;;;5016961;28;20240;-87
2022/06/17 12:37:20;;;;;;;0.47;0.43;;;;;;;;;;5013578;28;20226;-85
2022/06/17 12:39:51;;;;;;;0.50;0.50;;;;;;;;;;5028239;28;20230;-85
2022/06/17 12:42:23;;;;;;;2.20;1.15;;;;;;;;;;5031831;28;20675;-86
2022/06/17 12:44:57;;;;;;;0.50;0.50;;;;;;;;;;5038123;28;20230;-94
2022/06/17 12:47:27;;;;;;;0.60;0.60;;;;;;;;;;5004078;28;20241;-93
2022/06/17 12:55:36;;;;;;;0.75;0.40;;;;;;;;;;4996765;28;20270;-94
2022/06/17 12:58:22;;;;;;;0.47;0.47;;;;;;;;;;5019942;28;20214;-94
2022/06/17 13:01:10;;;;;;;1.13;0.60;;;;;;;;;;4995615;28;20230;-93
2022/06/17 13:03:46;;;;;;;0.55;0.52;;;;;;;;;;5015681;28;20211;-94
2022/06/17 13:06:18;;;;;;;0.35;0.35;;;;;;;;;;5013991;28;20238;-91
2022/06/17 13:08:51;;;;;;;0.40;0.40;;;;;;;;;;5016182;28;20778;-89
2022/06/17 13:11:21;;;;;;;0.60;0.40;;;;;;;;;;5017100;28;20233;-90
2022/06/17 13:14:03;;;;;;;0.60;0.60;;;;;;;;;;5017967;28;20640;-92
2022/06/17 13:16:34;;;;;;;0.50;0.50;;;;;;;;;;5016785;28;20227;-92
2022/06/17 13:19:07;;;;;;;0.40;0.40;;;;;;;;;;5017381;28;20233;-93
2022/06/17 13:21:36;;;;;;;1.30;0.60;;;;;;;;;;5017113;28;20573;-90
2022/06/17 13:24:08;;;;;;;0.60;0.35;;;;;;;;;;5015472;28;20221;-90
2022/06/17 13:26:37;;;;;;;0.63;0.50;;;;;;;;;;5016383;28;20257;-92
2022/06/17 13:29:08;;;;;;;0.77;0.77;;;;;;;;;;5015973;28;20223;-88
2022/06/17 13:31:39;;;;;;;0.68;0.60;;;;;;;;;;5016119;28;20213;-89
2022/06/17 13:34:10;;;;;;;1.20;0.40;;;;;;;;;;5015502;28;20207;-88
2022/06/17 13:36:51;;;;;;;0.50;0.50;;;;;;;;;;5015987;28;20234;-89
2022/06/17 13:39:19;;;;;;;0.57;0.57;;;;;;;;;;5020344;28;20310;-88
2022/06/17 13:41:48;;;;;;;0.77;0.77;;;;;;;;;;5015664;28;20211;-89
2022/06/17 13:44:18;;;;;;;0.40;0.40;;;;;;;;;;5015378;28;20265;-88
2022/06/17 13:46:51;;;;;;;0.65;0.50;;;;;;;;;;5013365;28;20238;-90
2022/06/17 13:49:33;;;;;;;0.68;0.50;;;;;;;;;;4989464;28;20373;-90
2022/06/17 13:52:04;;;;;;;0.60;0.60;;;;;;;;;;5005673;28;20221;-92
2022/06/17 13:54:38;;;;;;;0.65;0.57;;;;;;;;;;4995616;28;20278;-92
2022/06/17 13:57:09;;;;;;;0.50;0.50;;;;;;;;;;4995769;28;20227;-91
2022/06/17 13:59:38;;;;;;;1.27;0.40;;;;;;;;;;4995838;28;20238;-91
2022/06/17 14:02:21;;;;;;;1.27;0.70;;;;;;;;;;4996238;28;20219;-92
2022/06/17 14:05:07;;;;;;;0.85;0.40;;;;;;;;;;5007615;28;20231;-92
2022/06/17 14:07:53;;;;;;;1.58;0.70;;;;;;;;;;5016483;28;20230;-92
2022/06/17 14:10:40;;;;;;;0.40;0.40;;;;;;;;;;5015370;28;20243;-92
2022/06/17 14:13:18;;;;;;;0.60;0.60;;;;;;;;;;5016870;28;20218;-89
2022/06/17 14:15:48;;;;;;;0.60;0.60;;;;;;;;;;5015787;28;20234;-90
2022/06/17 14:18:21;;;;;;;0.50;0.50;;;;;;;;;;5016241;28;20227;-91
2022/06/17 14:20:58;;;;;;;0.52;0.52;;;;;;;;;;5018038;28;20600;-87
2022/06/17 14:23:39;;;;;;;0.68;0.68;;;;;;;;;;5016013;28;20195;-90
2022/06/17 14:26:06;;;;;;;0.40;0.40;;;;;;;;;;5015753;28;20242;-89
2022/06/17 14:28:38;;;;;;;1.85;0.73;;;;;;;;;;5017568;28;20577;-89
2022/06/17 14:31:31;;;;;;;0.50;0.50;;;;;;;;;;5018337;28;20234;-89
2022/06/17 14:34:01;;;;;;;0.45;0.45;;;;;;;;;;5007731;28;20265;-89
2022/06/17 14:36:49;;;;;;;0.55;0.55;;;;;;;;;;5044099;28;20228;-89
2022/06/17 14:39:39;;;;;;;0.40;0.40;;;;;;;;;;5016068;28;20237;-88
2022/06/17 14:42:09;;;;;;;0.50;0.50;;;;;;;;;;5012167;28;20203;-89
2022/06/17 14:44:37;;;;;;;0.40;0.40;;;;;;;;;;5022063;28;20750;-87
2022/06/17 14:47:23;;;;;;;0.68;0.68;;;;;;;;;;5004975;28;20756;-88
2022/06/17 14:50:04;;;;;;;0.60;0.60;;;;;;;;;;4997436;28;20266;-90
2022/06/17 14:52:33;;;;;;;0.98;0.80;;;;;;;;;;4996890;28;20283;-89
2022/06/17 14:55:01;;;;;;;0.63;0.63;;;;;;;;;;5045337;23;20215;-83
2022/06/17 14:57:30;;;;;;;0.60;0.60;;;;;;;;;;5029632;28;20221;-82
2022/06/17 15:00:05;;;;;;;0.60;0.60;;;;;;;;;;5029716;28;20238;-81
2022/06/17 15:02:39;;;;;;;0.60;0.60;;;;;;;;;;5026050;28;20200;-81
2022/06/17 15:05:16;;;;;;;0.60;0.60;;;;;;;;;;5033248;28;20219;-82
2022/06/17 15:07:48;;;;;;;0.60;0.60;;;;;;;;;;5038523;28;20218;-81
2022/06/17 15:10:20;;;;;;;0.70;0.68;;;;;;;;;;5038124;28;20231;-80
2022/06/17 15:12:48;;;;;;;0.60;0.60;;;;;;;;;;5038437;28;20191;-80
2022/06/17 15:15:18;;;;;;;0.80;0.75;;;;;;;;;;5037497;28;20227;-80